Monitor, WA

12:56 AM PDT on August 20, 2014 (GMT -0700)
Sunnyslope | Change Station
CLOSE
Current Station
Personal Weather Station
Location: Wenatchee, WA
Elevation: 1168 ft
Nearby Weather Stations

Elev 1168 ft 47.49 °N, 120.36 °W | Updated 7 seconds ago

Clear
Clear
73.2 °F
Feels Like 77 °F
N
13.0
Wind Variable Wind from NNW

Today
High -- | Low -- °F
--% Chance of Precip.
Yesterday
High -- | Low -- °F
Precip. -- in
6:04 AM 8:04 PM
Waning Crescent, 23% visible
Pressure 29.68 in
Visibility 10.0 miles
Clouds Clear
Heat Index 77 °F
Dew Point 51 °F
Humidity 46%
Rainfall 0.00 in
Snow Depth Not available.
UV 0 out of 12
Pollen 4.60 out of 12
Air Quality Not available.
Flu Activity Not available.
METAR KEAT 200655Z AUTO 30008KT 10SM CLR 24/10 A2971 RMK AO2 SLP048 T02390100

More Conditions Fewer Conditions

Pressure 29.68 in
Visibility 10.0 miles
Clouds Clear
Heat Index 77 °F
Dew Point 51 °F
Humidity 46%
Rainfall 0.00 in
Snow Depth Not available.
UV 0 out of 12
Pollen 4.60 out of 12
Air Quality Not available.
Flu Activity Not available.
METAR KEAT 200655Z AUTO 30008KT 10SM CLR 24/10 A2971 RMK AO2 SLP048 T02390100

More Conditions Fewer Conditions

10-Day Weather Forecast

Almanac

Astronomy

Aug. 20, 2014 Rise Set
Actual Time 6:04 AM PDT 8:04 PM PDT
Civil Twilight 5:31 AM PDT 8:37 PM PDT
Nautical Twilight 4:50 AM PDT 9:18 PM PDT
Astronomical Twilight 4:04 AM PDT 10:03 PM PDT
Moon 1:41 AM PDT 5:00 PM PDT
Length of Visible Light 15h 06m
Length of Day
14h 00m
Tomorrow will be 3m 10s shorter.
Waning Crescent, 23% of the Moon is Illuminated
Today
Waning Crescent
Aug 25
New
Sep 2
First Quarter
Sep 8
Full
Sep 15
Last Quarter

Today's Extremes

State Highs State Lows

Community

WunderPhotos

Upload Photos

1,745,592 photos uploaded!

Nearby

Snow Depth

Station Depth Elevation
Blewett Pass 0 in 4270 ft
Grouse Camp 0 in 5380 ft
Trough 0 in 5300 ft
Sasse Ridge 0 in 4200 ft
Stevens Pass 0 in 4070 ft

Earthquake Activity

City Distance Mag. Time & Date
No recent earthquake activity has been reported nearby.
Minimum magnitude displayed is 2.5.

Coastal Water Temperatures

Place Temperature
No Stations Reporting

Nearby Weather Stations